ADDS METAR Data INFO
IDs: Format: Raw Decoded Include TAF

Data at: 1015 UTC 14 Dec 2017

KLGB 140953Z AUTO 00000KT 9SM CLR 09/04 A2996 RMK AO2 SLP143 T00890044 $
KLGB 140901Z AUTO 00000KT 9SM SCT003 11/06 A2996 RMK AO2 T01110056 $
KLGB 140853Z AUTO 00000KT 9SM BKN003 11/06 A2996 RMK AO2 SLP144 T01060056 58002 $
KLGB 140831Z AUTO 00000KT 9SM BKN002 11/06 A2996 RMK AO2 T01110061 $
KLGB 140822Z AUTO 00000KT 9SM SCT002 11/07 A2996 RMK AO2 T01060067 $
KLGB 140753Z 00000KT 9SM CLR 11/07 A2996 RMK AO2 SLP145 T01060067 402720078 $
KLGB 140653Z AUTO 00000KT 9SM CLR 11/06 A2996 RMK AO2 SLP145 T01110061 $
KLGB 140553Z AUTO 00000KT 9SM CLR 12/06 A2996 RMK AO2 SLP146 T01220061 10217 20122 51009 $
KLGB 140453Z AUTO 00000KT 9SM CLR 14/08 A2996 RMK AO2 SLP146 T01390078 $
KLGB 140353Z AUTO 00000KT 9SM CLR 16/03 A2995 RMK AO2 SLP141 T01560033 $
KLGB 140253Z 00000KT 9SM CLR 17/02 A2994 RMK AO2 SLP137 T01670022 50005 $
KLGB 140153Z 00000KT 10SM CLR 19/02 A2995 RMK AO2 SLP139 T01940017 $
KLGB 140053Z 31005KT 10SM CLR 21/02 A2993 RMK AO2 SLP134 T02110017 $
KLGB 132353Z 20004KT 10SM CLR 21/09 A2992 RMK AO2 SLP132 T02110089 10272 20206 56008 $
KLGB 132253Z 18007KT 10SM CLR 22/09 A2993 RMK AO2 SLP135 T02170089 $
KLGB 132153Z 19007KT 10SM CLR 22/09 A2994 RMK AO2 SLP136 T02220089 $
KLGB 132053Z 19005KT 9SM CLR 25/M01 A2995 RMK AO2 SLP140 T02501006 56027 $
KLGB 131953Z 00000KT 10SM CLR 27/M06 A2997 RMK AO2 SLP147 T02671061 $
KLGB 131853Z 00000KT 10SM CLR 24/M06 A3000 RMK AO2 SLP158 T02391056 $
KLGB 131753Z 00000KT 10SM CLR 21/M06 A3003 RMK AO2 SLP167 T02061056 10206 20078 50007 $
KLGB 131653Z 34003KT 10SM CLR 16/M05 A3003 RMK AO2 SLP168 T01611050 $
KLGB 131553Z 30006KT 10SM CLR 11/M03 A3002 RMK AO2 SLP164 T01061033 $
KLGB 131453Z 00000KT 10SM CLR 09/M04 A3001 RMK AO2 SLP160 T00891039 53003 $
KLGB 131353Z AUTO 00000KT 10SM CLR 09/M06 A3000 RMK AO2 SLP159 T00941056 $
KLGB 131253Z AUTO 31003KT 10SM CLR 09/M05 A3000 RMK AO2 SLP157 T00891050 $
KLGB 131249Z AUTO 31003KT 10SM FEW001 09/M05 A3000 RMK AO2 $
KLGB 131153Z AUTO 30003KT 10SM CLR 10/M06 A3000 RMK AO2 SLP157 T01001056 10144 20094 58005 $
KLGB 131053Z AUTO 00000KT 10SM FEW001 11/M04 A3001 RMK AO2 SLP162 T01111039 $
KLGB 130953Z AUTO 29004KT 10SM CLR 13/M06 A3001 RMK AO2 SLP163 T01331056 $
KLGB 130853Z AUTO 30003KT 10SM CLR 14/M03 A3001 RMK AO2 SLP162 T01391033 58006 $
KLGB 130753Z AUTO 30004KT 10SM CLR 14/M02 A3001 RMK AO2 SLP163 T01391022 402940089 $
KLGB 130653Z AUTO 00000KT 5SM HZ CLR 12/03 A3003 RMK AO2 SLP168 T01220033 $
KLGB 130553Z 00000KT 5SM HZ CLR 14/04 A3003 RMK AO2 SLP167 T01390044 10256 20139 58003 $
KLGB 130453Z 30004KT 5SM HZ CLR 14/03 A3003 RMK AO2 SLP169 T01440028 $
KLGB 130353Z 00000KT 6SM HZ CLR 17/03 A3004 RMK AO2 SLP171 T01670028 $
KLGB 130253Z 33004KT 9SM CLR 18/M01 A3004 RMK AO2 SLP170 T01831006 51003 $
KLGB 130153Z 30005KT 10SM CLR 21/M02 A3003 RMK AO2 SLP170 T02061022 $
KLGB 130053Z 31005KT 10SM CLR 22/M07 A3003 RMK AO2 SLP168 T02221072 $
KLGB 122353Z 30010KT 10SM CLR 26/M04 A3003 RMK AO2 SLP167 T02611044 10294 20211 56016 $
KLGB 122253Z 31006KT 10SM CLR 29/M17 A3003 RMK AO2 SLP168 T02891167 $